Tokio, Japonia

03:12 PM JST on februarie 22, 2017 (GMT +0900)
大田区 | | Change Station

Elev 0 ft 35.58 °N, 139.71 °E | Updated 4 minutes ago

Cer acoperit
Cer acoperit
50.5 °F
Feels Like 50.5 °F
N
0.6
Vânt variabil Vânt from NNE
Gusts 4.3 mph

astăzi
High -- | Low -- °F
--% Chance of Precip.
Ieri
High -- | Low -- °F
Precip. -- inch
Presiunea 30.15 inch
Vizibilitatea 6.2 mile
Nori Few 3000 ft
Cer în general noros 3500 ft
Punctul de rouă 35 °F
Umiditatea 55%
Precipitaţii 0.00 inch
Adâncimea zăpezii Not available.
6:20 AM 5:29 PM
Semilună în descreştere, 19% visible
METAR RJTT 220600Z 18014KT 9999 -RA FEW030 BKN035 10/02 Q1021 TEMPO 20022G32KT RMK 1CU030 7SC035 A3017
Presiunea 30.15 inch
Vizibilitatea 6.2 mile
Nori Few 3000 ft
Cer în general noros 3500 ft
Punctul de rouă 35 °F
Umiditatea 55%
Precipitaţii 0.00 inch
Adâncimea zăpezii Not available.
6:20 AM 5:29 PM
Semilună în descreştere, 19% visible
METAR RJTT 220600Z 18014KT 9999 -RA FEW030 BKN035 10/02 Q1021 TEMPO 20022G32KT RMK 1CU030 7SC035 A3017

Get Your Daily Forecast Email!

Thanks for signing up!

Be on the lookout for a verification email in your inbox.

You'll start receiving the daily forecast at 8 AM.

×

10-Day Weather Forecast

No radar image for this location.
×

Almanac

Astronomie

Feb. 22, 2017 Răsărit Apus
Timpul Actual
Crepusculul Civil
Crepusculul nautic
Răsărit Astronomic
Luna
Durata zilei lumină
Lungimea zilei
Tomorrow will be .
, % of the Moon is Illuminated

Extremele de azi

Country Highs Country Lows

Community

WunderPhotos

Upload Photos

1,962,540 photos uploaded!

WunderBlog® & News

Nearby

Calitatea aerului

  Calitatea aerului Index de calitate a aerului Poluat
Not available.

Adâncimea zapezii

Station Depth Elevation

Earthquake Activity

Oraş Distance Mag. Time & Date
Minimum magnitude displayed is 2.5.

Coastal Water Temperatures

Locul Temperatura

Stations

Nearby Weather Stations

Locaţia staţiei Temp Vânt rece Punctul de rouă Umiditatea Vânt Precip. Elev Actualizare Type